QTR806 FAOR-RJAA
Flight info
| Callsign | QTR806 |
|---|---|
| Flight time | N/A |
| Altitude | 23000 |
| Route | EXOBI1A EXOBI T122 ORNAD/N0508F270 UG653 VMA UB536 EROPA/N0507F330 UB536 EDAMA/N0501F350 UB536 TNV UR348 RUPIG R348 UDKIP/N0497F370 R348 KADAP P627 PIMOG/N0489F390 P627 PUT W34 IGEVI Y5 CPN W34 MENEX W42 RAMEI A202 VILAO/K0909F390 A202 ASSAD/K0909S1190 A202 NONEM/K0900S1250 A202 SIKOU/N0486F410 A202 BIGEX A1 APU G587 PABSO R583 BORDO Z29 GAKIA Y293 YULIA Y89 GUPER Y81 RUTAS |
| Aircraft | A359/H-SDE2E3GHIJ3J4J5LM1ORWXY/LB1D1 |
Departure
| Time | 2026-05-06 17:53 |
|---|---|
| Airport | O.R. Tambo International Airport (FAOR) |
Arrival
| Time | N/A |
|---|---|
| Airport | Narita International Airport (RJAA) |
| Time | Latitude | Longitude | Altitude | Speed | Heading |
|---|---|---|---|---|---|
| 2026-05-06 17:32 | -26.13039 | 28.23618 | 5548 ft | 0 kts | 7° |
| 2026-05-06 17:43 | -26.13045 | 28.23617 | 5553 ft | 4 kts | 7° |
| 2026-05-06 17:43 | -26.13073 | 28.23613 | 5551 ft | 4 kts | 7° |
| 2026-05-06 17:43 | -26.13096 | 28.23611 | 5552 ft | 4 kts | 9° |
| 2026-05-06 17:44 | -26.13119 | 28.23604 | 5551 ft | 4 kts | 37° |
| 2026-05-06 17:44 | -26.13131 | 28.23589 | 5551 ft | 4 kts | 81° |
| 2026-05-06 17:44 | -26.13130 | 28.23564 | 5551 ft | 4 kts | 107° |
| 2026-05-06 17:44 | -26.13122 | 28.23535 | 5551 ft | 4 kts | 105° |
| 2026-05-06 17:45 | -26.13118 | 28.23516 | 5552 ft | 1 kts | 96° |
| 2026-05-06 17:48 | -26.13118 | 28.23523 | 5551 ft | 3 kts | 97° |
| 2026-05-06 17:48 | -26.13123 | 28.23564 | 5550 ft | 8 kts | 97° |
| 2026-05-06 17:48 | -26.13138 | 28.23645 | 5549 ft | 12 kts | 117° |
| 2026-05-06 17:48 | -26.13221 | 28.23670 | 5553 ft | 15 kts | 189° |
| 2026-05-06 17:49 | -26.13307 | 28.23646 | 5555 ft | 8 kts | 195° |
| 2026-05-06 17:49 | -26.13375 | 28.23626 | 5557 ft | 12 kts | 195° |
| 2026-05-06 17:49 | -26.13468 | 28.23598 | 5556 ft | 16 kts | 195° |
| 2026-05-06 17:49 | -26.13583 | 28.23561 | 5559 ft | 19 kts | 196° |
| 2026-05-06 17:50 | -26.13717 | 28.23517 | 5562 ft | 21 kts | 196° |
| 2026-05-06 17:50 | -26.13864 | 28.23474 | 5563 ft | 22 kts | 195° |
| 2026-05-06 17:50 | -26.14020 | 28.23427 | 5567 ft | 24 kts | 195° |
| 2026-05-06 17:50 | -26.14186 | 28.23374 | 5566 ft | 22 kts | 195° |
| 2026-05-06 17:51 | -26.14335 | 28.23328 | 5568 ft | 18 kts | 195° |
| 2026-05-06 17:51 | -26.14459 | 28.23289 | 5570 ft | 17 kts | 194° |
| 2026-05-06 17:51 | -26.14567 | 28.23293 | 5571 ft | 15 kts | 154° |
| 2026-05-06 17:51 | -26.14614 | 28.23401 | 5571 ft | 18 kts | 87° |
| 2026-05-06 17:52 | -26.14505 | 28.23481 | 5569 ft | 25 kts | 16° |
| 2026-05-06 17:52 | -26.14167 | 28.23586 | 5568 ft | 79 kts | 15° |
| 2026-05-06 17:52 | -26.13455 | 28.23805 | 5556 ft | 133 kts | 15° |
| 2026-05-06 17:52 | -26.12407 | 28.24126 | 5542 ft | 179 kts | 15° |
| 2026-05-06 17:53 | -26.11158 | 28.24513 | 6118 ft | 175 kts | 10° |
| 2026-05-06 17:53 | -26.09938 | 28.24919 | 6547 ft | 196 kts | 13° |
| 2026-05-06 17:53 | -26.08577 | 28.25438 | 6796 ft | 215 kts | 13° |
| 2026-05-06 17:53 | -26.07116 | 28.26002 | 7005 ft | 230 kts | 13° |
| 2026-05-06 17:54 | -26.05571 | 28.26596 | 7291 ft | 238 kts | 13° |
| 2026-05-06 17:54 | -26.03994 | 28.27202 | 7692 ft | 241 kts | 13° |
| 2026-05-06 17:54 | -26.02400 | 28.27839 | 7950 ft | 256 kts | 18° |
| 2026-05-06 17:54 | -26.00836 | 28.28957 | 8091 ft | 281 kts | 42° |
| 2026-05-06 17:55 | -25.99843 | 28.30897 | 8352 ft | 300 kts | 76° |
| 2026-05-06 17:55 | -25.99762 | 28.33229 | 8853 ft | 305 kts | 95° |
| 2026-05-06 17:55 | -25.99973 | 28.35590 | 9401 ft | 309 kts | 96° |
| 2026-05-06 17:55 | -26.00183 | 28.37987 | 9974 ft | 312 kts | 95° |
| 2026-05-06 17:56 | -26.00369 | 28.40416 | 10376 ft | 321 kts | 95° |
| 2026-05-06 17:56 | -26.00545 | 28.42951 | 10600 ft | 337 kts | 94° |
| 2026-05-06 17:56 | -26.00717 | 28.45609 | 10840 ft | 352 kts | 94° |
| 2026-05-06 17:56 | -26.00892 | 28.48381 | 11063 ft | 366 kts | 94° |
| 2026-05-06 17:57 | -26.01067 | 28.51229 | 11277 ft | 380 kts | 94° |
| 2026-05-06 17:57 | -26.01122 | 28.54243 | 11517 ft | 392 kts | 90° |
| 2026-05-06 17:57 | -26.01118 | 28.57322 | 11739 ft | 404 kts | 89° |
| 2026-05-06 17:57 | -26.01087 | 28.60486 | 11980 ft | 415 kts | 89° |
| 2026-05-06 17:58 | -26.01037 | 28.63720 | 12364 ft | 420 kts | 89° |
| 2026-05-06 17:58 | -26.00979 | 28.66987 | 12769 ft | 425 kts | 89° |
| 2026-05-06 17:58 | -26.00917 | 28.70285 | 13208 ft | 429 kts | 89° |
| 2026-05-06 17:58 | -26.00856 | 28.73568 | 13630 ft | 432 kts | 89° |
| 2026-05-06 17:59 | -26.00794 | 28.76928 | 14023 ft | 436 kts | 89° |
| 2026-05-06 17:59 | -26.00733 | 28.80313 | 14351 ft | 440 kts | 89° |